Time;durP1;ratioP1;P1;durP2;ratioP2;P2;SDS_P1;SDS_P2;PMS_P1;PMS_P2;Temp;Humidity;BMP_temperature;BMP_pressure;BME280_temperature;BME280_humidity;BME280_pressure;Samples;Min_cycle;Max_cycle;Signal;HPM_P1;HPM_P2
2023/10/12 00:01:14;;;;;;;10.73;8.00;;;;;;;;;;12635247;23;20032;-66
2023/10/12 00:06:10;;;;;;;14.45;7.57;;;;;;;;;;12628866;23;20025;-66
2023/10/12 00:11:07;;;;;;;13.05;7.90;;;;;;;;;;12632472;23;20581;-66
2023/10/12 00:16:06;;;;;;;14.68;8.25;;;;;;;;;;12634518;23;20021;-66
2023/10/12 00:21:14;;;;;;;13.30;8.00;;;;;;;;;;12634501;23;20339;-65
2023/10/12 00:26:11;;;;;;;9.52;8.25;;;;;;;;;;12633721;23;20418;-65
2023/10/12 00:31:17;;;;;;;17.60;8.68;;;;;;;;;;12635361;23;20116;-66
2023/10/12 00:36:21;;;;;;;16.40;8.63;;;;;;;;;;12634803;23;20027;-66
2023/10/12 00:41:19;;;;;;;14.75;8.65;;;;;;;;;;12628721;23;20032;-65
2023/10/12 00:46:32;;;;;;;16.63;8.48;;;;;;;;;;12634216;23;20025;-66
2023/10/12 00:51:31;;;;;;;11.95;7.93;;;;;;;;;;12632447;23;20124;-66
2023/10/12 00:56:28;;;;;;;17.60;8.23;;;;;;;;;;12634792;23;20059;-66
2023/10/12 01:01:25;;;;;;;13.45;8.30;;;;;;;;;;12633198;23;20060;-66
2023/10/12 01:06:28;;;;;;;15.90;8.20;;;;;;;;;;12634199;23;20475;-66
2023/10/12 01:11:27;;;;;;;14.43;8.95;;;;;;;;;;12628687;23;20734;-66
2023/10/12 01:16:24;;;;;;;12.93;8.40;;;;;;;;;;12633417;23;20336;-66
2023/10/12 01:21:21;;;;;;;17.88;8.90;;;;;;;;;;12633794;23;20099;-66
2023/10/12 01:26:18;;;;;;;12.68;8.57;;;;;;;;;;12630768;23;20024;-66
2023/10/12 01:31:27;;;;;;;15.27;8.30;;;;;;;;;;12633721;23;20029;-66
2023/10/12 01:36:27;;;;;;;16.30;8.48;;;;;;;;;;12633813;23;20029;-66
2023/10/12 01:41:27;;;;;;;12.80;8.25;;;;;;;;;;12628792;23;20051;-66
2023/10/12 01:46:23;;;;;;;17.55;8.68;;;;;;;;;;12630140;23;20103;-65
2023/10/12 01:51:26;;;;;;;14.68;7.95;;;;;;;;;;12630986;23;20051;-66
2023/10/12 01:56:28;;;;;;;19.00;8.85;;;;;;;;;;12632745;23;20579;-66
2023/10/12 02:01:24;;;;;;;11.63;7.88;;;;;;;;;;12633803;23;20518;-66
2023/10/12 02:06:28;;;;;;;13.38;8.15;;;;;;;;;;12634283;23;20074;-65
2023/10/12 02:16:30;;;;;;;15.68;8.93;;;;;;;;;;12637051;23;20029;-64
2023/10/12 02:21:27;;;;;;;14.23;8.60;;;;;;;;;;12635594;23;20115;-65
2023/10/12 02:26:36;;;;;;;14.32;8.77;;;;;;;;;;12637129;23;20086;-65
2023/10/12 02:31:34;;;;;;;12.65;8.60;;;;;;;;;;12635096;23;20028;-65
2023/10/12 02:36:31;;;;;;;13.15;8.07;;;;;;;;;;12635715;23;20028;-65
2023/10/12 02:41:27;;;;;;;24.05;9.35;;;;;;;;;;12631575;23;20025;-65
2023/10/12 02:46:25;;;;;;;18.27;8.80;;;;;;;;;;12633310;23;20024;-65
2023/10/12 02:51:22;;;;;;;12.95;8.70;;;;;;;;;;12635380;23;20028;-66
2023/10/12 02:56:24;;;;;;;11.00;8.60;;;;;;;;;;12636220;23;20082;-66
2023/10/12 03:01:21;;;;;;;12.43;8.85;;;;;;;;;;12635990;23;20086;-66
2023/10/12 03:06:24;;;;;;;20.70;9.48;;;;;;;;;;12634766;23;20343;-66
2023/10/12 03:11:25;;;;;;;11.50;8.55;;;;;;;;;;12636396;23;20423;-66
2023/10/12 03:16:22;;;;;;;15.77;9.73;;;;;;;;;;12629533;23;20502;-66
2023/10/12 03:21:19;;;;;;;11.88;9.00;;;;;;;;;;12636713;23;20410;-66
2023/10/12 03:26:24;;;;;;;20.08;9.60;;;;;;;;;;12635273;23;20028;-65
2023/10/12 03:31:26;;;;;;;20.27;9.68;;;;;;;;;;12634787;23;20025;-66
2023/10/12 03:36:26;;;;;;;13.00;9.23;;;;;;;;;;12634521;23;20054;-65
2023/10/12 03:46:27;;;;;;;15.02;9.98;;;;;;;;;;12634732;23;20482;-65
2023/10/12 03:51:38;;;;;;;11.73;9.13;;;;;;;;;;12635138;23;20055;-65
2023/10/12 03:56:39;;;;;;;19.55;9.63;;;;;;;;;;12633375;23;20030;-65
2023/10/12 04:01:40;;;;;;;16.70;9.80;;;;;;;;;;12634490;23;20031;-65
2023/10/12 04:07:15;;;;;;;13.05;9.55;;;;;;;;;;12635446;23;20059;-65
2023/10/12 04:22:26;;;;;;;14.33;9.77;;;;;;;;;;12634124;23;20079;-66
2023/10/12 04:27:38;;;;;;;12.07;9.13;;;;;;;;;;12631935;23;20028;-67
2023/10/12 04:32:38;;;;;;;17.67;9.35;;;;;;;;;;12632403;23;20431;-66
2023/10/12 04:37:38;;;;;;;12.00;9.57;;;;;;;;;;12632709;23;20040;-67
2023/10/12 04:42:34;;;;;;;12.15;9.55;;;;;;;;;;12627407;23;20025;-69
2023/10/12 04:47:31;;;;;;;12.18;10.10;;;;;;;;;;12628078;23;20079;-67
2023/10/12 04:52:33;;;;;;;12.82;9.25;;;;;;;;;;12632852;23;20055;-68
2023/10/12 04:57:34;;;;;;;;;;;;;;;;;;12634007;23;20024;-68
2023/10/12 05:02:41;;;;;;;13.32;9.85;;;;;;;;;;12631939;23;19916;-68
2023/10/12 05:07:53;;;;;;;23.25;11.18;;;;;;;;;;12632837;23;20024;-68
2023/10/12 05:13:03;;;;;;;16.02;10.45;;;;;;;;;;12628936;23;20422;-69
2023/10/12 05:18:02;;;;;;;19.10;11.15;;;;;;;;;;12627322;23;20020;-68
2023/10/12 05:22:59;;;;;;;16.38;9.85;;;;;;;;;;12628034;23;20024;-69
2023/10/12 05:28:14;;;;;;;16.20;9.98;;;;;;;;;;12627770;23;20466;-69
2023/10/12 05:33:28;;;;;;;18.00;10.55;;;;;;;;;;12628231;23;20033;-68
2023/10/12 05:38:37;;;;;;;21.83;10.27;;;;;;;;;;12632838;23;20087;-68
2023/10/12 05:43:35;;;;;;;12.40;10.38;;;;;;;;;;12629416;23;20024;-68
2023/10/12 05:48:35;;;;;;;13.60;10.00;;;;;;;;;;12634186;23;20020;-68
2023/10/12 05:53:34;;;;;;;12.40;10.35;;;;;;;;;;12633538;23;20035;-69
2023/10/12 05:58:33;;;;;;;17.35;10.02;;;;;;;;;;12633924;23;20039;-70
2023/10/12 06:03:30;;;;;;;13.68;10.38;;;;;;;;;;12633809;23;20027;-70
2023/10/12 06:08:28;;;;;;;20.30;11.30;;;;;;;;;;12633525;23;20031;-70
2023/10/12 06:13:32;;;;;;;11.80;9.85;;;;;;;;;;12634969;23;20455;-70
2023/10/12 06:18:30;;;;;;;22.05;11.23;;;;;;;;;;12635136;23;20455;-70
2023/10/12 06:23:28;;;;;;;16.75;10.70;;;;;;;;;;12635277;23;20029;-70
2023/10/12 06:28:27;;;;;;;18.02;10.77;;;;;;;;;;12635179;23;20068;-70
2023/10/12 06:33:24;;;;;;;13.13;9.85;;;;;;;;;;12633262;23;20370;-70
2023/10/12 06:38:36;;;;;;;16.65;10.15;;;;;;;;;;12634551;23;20107;-70
2023/10/12 06:53:29;;;;;;;19.27;11.95;;;;;;;;;;12634099;23;20120;-70
2023/10/12 06:58:36;;;;;;;23.90;11.65;;;;;;;;;;12633161;23;20036;-70
2023/10/12 07:03:35;;;;;;;17.23;10.60;;;;;;;;;;12633061;23;20024;-70
2023/10/12 07:08:32;;;;;;;14.98;10.30;;;;;;;;;;12632523;23;20027;-71
2023/10/12 07:13:28;;;;;;;15.45;9.68;;;;;;;;;;12633345;23;20145;-70
2023/10/12 07:18:25;;;;;;;13.65;11.07;;;;;;;;;;12633914;23;20025;-70
2023/10/12 07:23:33;;;;;;;16.42;9.95;;;;;;;;;;12633859;23;20471;-71
2023/10/12 07:28:33;;;;;;;19.35;10.40;;;;;;;;;;12632985;23;20785;-70
2023/10/12 07:33:30;;;;;;;17.63;9.85;;;;;;;;;;12632943;23;20074;-70
2023/10/12 07:38:34;;;;;;;17.30;10.35;;;;;;;;;;12633805;23;20305;-70
2023/10/12 07:43:38;;;;;;;17.38;10.57;;;;;;;;;;12626451;23;20098;-70
2023/10/12 07:48:42;;;;;;;16.80;10.57;;;;;;;;;;12633219;23;20027;-70
2023/10/12 07:53:39;;;;;;;16.65;9.57;;;;;;;;;;12631773;23;20028;-70
2023/10/12 07:58:35;;;;;;;18.83;10.57;;;;;;;;;;12632432;23;20048;-71
2023/10/12 08:03:39;;;;;;;13.68;8.70;;;;;;;;;;12631175;23;20025;-71
2023/10/12 08:08:37;;;;;;;15.82;9.30;;;;;;;;;;12631336;23;20408;-71
2023/10/12 08:13:39;;;;;;;15.02;9.68;;;;;;;;;;12632705;23;20031;-71
2023/10/12 08:19:09;;;;;;;13.37;8.10;;;;;;;;;;12632830;23;20021;-71
2023/10/12 08:24:09;;;;;;;15.70;8.75;;;;;;;;;;12630773;23;20539;-69
2023/10/12 08:39:48;;;;;;;12.57;5.80;;;;;;;;;;12632454;23;20031;-70
2023/10/12 08:44:45;;;;;;;9.38;5.82;;;;;;;;;;12625264;23;20025;-70
2023/10/12 08:49:53;;;;;;;11.32;7.30;;;;;;;;;;12629935;23;20020;-70
2023/10/12 08:54:53;;;;;;;16.17;8.57;;;;;;;;;;12632773;23;20051;-70
2023/10/12 09:05:10;;;;;;;9.68;4.70;;;;;;;;;;12631832;23;20020;-70
2023/10/12 09:10:28;;;;;;;12.98;5.85;;;;;;;;;;12632513;23;20083;-70
2023/10/12 09:15:29;;;;;;;15.20;5.57;;;;;;;;;;12630625;23;20454;-70
2023/10/12 09:20:31;;;;;;;11.52;5.70;;;;;;;;;;12630516;23;20362;-70
2023/10/12 09:30:45;;;;;;;13.98;6.72;;;;;;;;;;12632443;23;20028;-70
2023/10/12 09:35:41;;;;;;;16.33;6.65;;;;;;;;;;12630575;23;20028;-70
2023/10/12 09:40:42;;;;;;;13.05;6.45;;;;;;;;;;12632679;23;20027;-70
2023/10/12 09:45:47;;;;;;;16.48;6.15;;;;;;;;;;12625592;23;20033;-70
2023/10/12 09:50:44;;;;;;;15.00;5.70;;;;;;;;;;12630270;23;20035;-70
2023/10/12 09:55:45;;;;;;;20.65;6.85;;;;;;;;;;12631194;23;20021;-70
2023/10/12 10:00:55;;;;;;;10.40;5.97;;;;;;;;;;12631247;23;20021;-70
2023/10/12 10:06:10;;;;;;;17.98;6.32;;;;;;;;;;12631207;23;20016;-70
2023/10/12 10:11:11;;;;;;;9.02;5.13;;;;;;;;;;12630941;23;20032;-70
2023/10/12 10:16:10;;;;;;;18.45;6.03;;;;;;;;;;12627855;23;20025;-72
2023/10/12 10:21:07;;;;;;;9.23;5.57;;;;;;;;;;12630524;23;20036;-70
2023/10/12 10:26:36;;;;;;;14.60;5.63;;;;;;;;;;12633013;23;20500;-70
2023/10/12 10:31:41;;;;;;;14.45;5.28;;;;;;;;;;12633855;23;20083;-70
2023/10/12 10:36:37;;;;;;;13.95;4.97;;;;;;;;;;12634450;23;20036;-70
2023/10/12 10:47:00;;;;;;;10.88;5.65;;;;;;;;;;12622500;23;20038;-70
2023/10/12 10:57:14;;;;;;;11.50;5.10;;;;;;;;;;12630692;23;20043;-70
2023/10/12 11:02:11;;;;;;;8.82;4.03;;;;;;;;;;12633507;23;20035;-70
2023/10/12 11:07:15;;;;;;;17.17;4.53;;;;;;;;;;12633188;23;20024;-70
2023/10/12 11:12:14;;;;;;;7.93;4.75;;;;;;;;;;12633576;23;20546;-70
2023/10/12 11:17:10;;;;;;;10.95;5.57;;;;;;;;;;12631178;23;20028;-70
2023/10/12 11:22:11;;;;;;;13.20;4.53;;;;;;;;;;12633453;23;20537;-70
2023/10/12 11:27:11;;;;;;;12.57;4.87;;;;;;;;;;12631915;23;20029;-70
2023/10/12 11:32:09;;;;;;;14.95;5.38;;;;;;;;;;12634734;23;20036;-73
2023/10/12 11:37:06;;;;;;;11.85;5.43;;;;;;;;;;12632725;23;20029;-73
2023/10/12 11:42:04;;;;;;;9.45;5.05;;;;;;;;;;12632945;23;20052;-73
2023/10/12 11:47:01;;;;;;;8.98;4.82;;;;;;;;;;12627810;23;20588;-72
2023/10/12 11:51:58;;;;;;;12.18;4.78;;;;;;;;;;12632516;23;20029;-73
2023/10/12 11:56:54;;;;;;;10.00;4.70;;;;;;;;;;12633129;23;20039;-73
2023/10/12 12:01:54;;;;;;;10.60;4.80;;;;;;;;;;12632438;23;20378;-74
2023/10/12 12:06:53;;;;;;;9.18;4.72;;;;;;;;;;12631660;23;20513;-74
2023/10/12 12:11:53;;;;;;;8.55;4.70;;;;;;;;;;12631465;23;20049;-73
2023/10/12 12:16:49;;;;;;;10.43;4.95;;;;;;;;;;12629868;23;20496;-73
2023/10/12 12:21:46;;;;;;;9.80;5.45;;;;;;;;;;12631627;23;20031;-73
2023/10/12 12:26:45;;;;;;;13.45;5.97;;;;;;;;;;12632336;23;20020;-73
2023/10/12 12:31:44;;;;;;;9.20;5.40;;;;;;;;;;12630611;23;20025;-73
2023/10/12 12:36:41;;;;;;;11.35;5.32;;;;;;;;;;12632547;23;20466;-73
2023/10/12 12:41:38;;;;;;;10.60;4.97;;;;;;;;;;12633802;23;20152;-73
2023/10/12 12:46:34;;;;;;;15.07;5.30;;;;;;;;;;12631126;23;20025;-73
2023/10/12 12:51:30;;;;;;;13.57;5.10;;;;;;;;;;12624010;23;20635;-73
2023/10/12 12:56:27;;;;;;;10.57;5.35;;;;;;;;;;12632114;23;20036;-72
2023/10/12 13:01:23;;;;;;;10.82;5.60;;;;;;;;;;12630773;23;20099;-73
2023/10/12 13:06:22;;;;;;;13.75;5.30;;;;;;;;;;12630376;23;20083;-73
2023/10/12 13:11:19;;;;;;;10.15;5.25;;;;;;;;;;12631260;23;20029;-72
2023/10/12 13:16:15;;;;;;;8.65;4.85;;;;;;;;;;12631746;23;20024;-72
2023/10/12 13:21:14;;;;;;;8.32;5.10;;;;;;;;;;12631966;23;20463;-73
2023/10/12 13:26:12;;;;;;;10.05;5.30;;;;;;;;;;12631691;23;20021;-73
2023/10/12 13:31:10;;;;;;;10.18;4.95;;;;;;;;;;12631660;23;20031;-73
2023/10/12 13:36:08;;;;;;;10.35;5.85;;;;;;;;;;12629727;23;20025;-71
2023/10/12 13:41:05;;;;;;;12.65;5.05;;;;;;;;;;12630654;23;20024;-71
2023/10/12 13:46:08;;;;;;;11.55;4.97;;;;;;;;;;12630577;23;20059;-71
2023/10/12 13:51:20;;;;;;;10.38;5.45;;;;;;;;;;12625448;23;20034;-72
2023/10/12 13:56:23;;;;;;;9.27;5.13;;;;;;;;;;12630590;23;20028;-71
2023/10/12 14:01:21;;;;;;;7.85;4.60;;;;;;;;;;12633022;23;20082;-72
2023/10/12 14:06:19;;;;;;;9.93;4.60;;;;;;;;;;12635894;23;20068;-71
2023/10/12 14:11:16;;;;;;;9.20;5.47;;;;;;;;;;12633965;23;20039;-72
2023/10/12 14:16:14;;;;;;;13.43;5.32;;;;;;;;;;12634997;23;20028;-71
2023/10/12 14:21:11;;;;;;;16.80;5.07;;;;;;;;;;12636046;23;20035;-71
2023/10/12 14:26:09;;;;;;;11.50;4.93;;;;;;;;;;12635900;23;20091;-72
2023/10/12 14:31:06;;;;;;;11.63;4.90;;;;;;;;;;12635099;23;20021;-71
2023/10/12 14:36:05;;;;;;;14.02;5.10;;;;;;;;;;12634927;23;20358;-72
2023/10/12 14:41:05;;;;;;;10.23;4.85;;;;;;;;;;12635997;23;20031;-71
2023/10/12 14:46:04;;;;;;;11.45;6.57;;;;;;;;;;12632983;23;20020;-71
2023/10/12 14:51:07;;;;;;;9.52;4.93;;;;;;;;;;12627855;23;20020;-71
2023/10/12 14:56:03;;;;;;;13.75;6.03;;;;;;;;;;12633660;23;20382;-72
2023/10/12 15:01:00;;;;;;;12.60;4.78;;;;;;;;;;12634993;23;20028;-72
2023/10/12 15:06:00;;;;;;;9.30;4.70;;;;;;;;;;12633013;23;20021;-71
2023/10/12 15:10:59;;;;;;;10.57;4.90;;;;;;;;;;12631926;23;20016;-73
2023/10/12 15:15:58;;;;;;;6.50;4.82;;;;;;;;;;12633771;23;20033;-73
2023/10/12 15:20:54;;;;;;;12.13;4.82;;;;;;;;;;12635061;23;20020;-73
2023/10/12 15:26:11;;;;;;;9.70;4.55;;;;;;;;;;12634487;23;20867;-73
2023/10/12 15:31:08;;;;;;;6.85;4.57;;;;;;;;;;12633993;23;20020;-70
2023/10/12 15:36:07;;;;;;;9.13;4.60;;;;;;;;;;12628178;23;20024;-70
2023/10/12 15:41:04;;;;;;;10.75;4.75;;;;;;;;;;12629579;23;20024;-69
2023/10/12 15:46:09;;;;;;;12.05;5.65;;;;;;;;;;12629614;23;20031;-70
2023/10/12 15:51:24;;;;;;;9.60;5.28;;;;;;;;;;12616712;23;20459;-70
2023/10/12 15:56:20;;;;;;;7.32;4.70;;;;;;;;;;12631974;23;20367;-70
2023/10/12 16:01:20;;;;;;;10.77;6.32;;;;;;;;;;12631393;23;20025;-70
2023/10/12 16:06:16;;;;;;;9.90;5.95;;;;;;;;;;12632261;23;20374;-70
2023/10/12 16:11:19;;;;;;;11.90;6.18;;;;;;;;;;12653075;23;20031;-70
2023/10/12 16:16:16;;;;;;;16.90;6.35;;;;;;;;;;12632742;23;20398;-69
2023/10/12 16:21:16;;;;;;;11.38;6.90;;;;;;;;;;12630967;23;20020;-70
2023/10/12 16:26:14;;;;;;;11.05;6.22;;;;;;;;;;12631603;23;20402;-70
2023/10/12 16:31:11;;;;;;;13.27;6.88;;;;;;;;;;12629450;23;20474;-69
2023/10/12 16:36:08;;;;;;;12.85;7.03;;;;;;;;;;12625376;23;20028;-70
2023/10/12 16:41:08;;;;;;;12.60;7.13;;;;;;;;;;12619022;23;20097;-69
2023/10/12 16:46:05;;;;;;;12.02;7.53;;;;;;;;;;12633094;23;20017;-71
2023/10/12 16:51:05;;;;;;;8.68;7.13;;;;;;;;;;12627577;23;20025;-69
2023/10/12 16:56:07;;;;;;;15.63;8.15;;;;;;;;;;12632234;23;20024;-69
2023/10/12 17:01:03;;;;;;;8.98;7.13;;;;;;;;;;12633905;23;20028;-70
2023/10/12 17:06:00;;;;;;;13.63;8.00;;;;;;;;;;12626088;23;20801;-69
2023/10/12 17:10:56;;;;;;;10.70;7.70;;;;;;;;;;12629355;23;20029;-69
2023/10/12 17:15:52;;;;;;;16.38;7.45;;;;;;;;;;12631585;23;20025;-70
2023/10/12 17:20:50;;;;;;;8.20;7.40;;;;;;;;;;12629486;23;20028;-70
2023/10/12 17:25:47;;;;;;;15.82;8.55;;;;;;;;;;12631638;23;20024;-70
2023/10/12 17:30:46;;;;;;;12.35;8.32;;;;;;;;;;12620846;23;20095;-69
2023/10/12 17:35:44;;;;;;;12.27;8.05;;;;;;;;;;12615184;23;20028;-69
2023/10/12 17:40:41;;;;;;;12.40;8.43;;;;;;;;;;12625194;23;20394;-69
2023/10/12 17:45:38;;;;;;;13.15;8.60;;;;;;;;;;12631998;23;20577;-69
2023/10/12 17:50:37;;;;;;;15.02;9.25;;;;;;;;;;12633700;23;20070;-69
2023/10/12 17:55:37;;;;;;;11.85;8.85;;;;;;;;;;12628463;23;20043;-69
2023/10/12 18:00:35;;;;;;;11.65;8.90;;;;;;;;;;12633745;23;20032;-69
2023/10/12 18:05:32;;;;;;;17.85;9.98;;;;;;;;;;12632235;23;20216;-70
2023/10/12 18:10:28;;;;;;;12.15;9.52;;;;;;;;;;12631374;23;20032;-69
2023/10/12 18:15:25;;;;;;;16.00;10.38;;;;;;;;;;12631537;23;20079;-70
2023/10/12 18:20:24;;;;;;;14.65;10.18;;;;;;;;;;12630511;23;20032;-70
2023/10/12 18:25:21;;;;;;;19.88;10.18;;;;;;;;;;12632131;23;20024;-73
2023/10/12 18:30:17;;;;;;;15.57;10.40;;;;;;;;;;12631419;23;20047;-72
2023/10/12 18:35:14;;;;;;;14.93;9.85;;;;;;;;;;12633679;23;20032;-73
2023/10/12 18:40:12;;;;;;;14.45;9.15;;;;;;;;;;12633982;23;20051;-73
2023/10/12 18:45:09;;;;;;;14.60;10.05;;;;;;;;;;12633225;23;20057;-72
2023/10/12 18:50:07;;;;;;;20.33;10.00;;;;;;;;;;12636173;23;20338;-72
2023/10/12 18:55:07;;;;;;;11.07;9.85;;;;;;;;;;12630939;23;20025;-72
2023/10/12 19:00:15;;;;;;;17.30;10.50;;;;;;;;;;12637465;23;20031;-72
2023/10/12 19:05:13;;;;;;;16.90;9.50;;;;;;;;;;12637143;23;20016;-72
2023/10/12 19:10:10;;;;;;;14.70;10.43;;;;;;;;;;12636895;23;20498;-72
2023/10/12 19:15:10;;;;;;;16.65;10.40;;;;;;;;;;12636180;23;20090;-72
2023/10/12 19:20:10;;;;;;;18.65;11.40;;;;;;;;;;12635588;23;20030;-72
2023/10/12 19:25:07;;;;;;;20.25;11.45;;;;;;;;;;12620877;23;20025;-70
2023/10/12 19:30:09;;;;;;;14.82;11.15;;;;;;;;;;12633328;23;20107;-70
2023/10/12 19:35:11;;;;;;;16.30;10.75;;;;;;;;;;12635316;23;20020;-69
2023/10/12 19:40:15;;;;;;;15.63;10.80;;;;;;;;;;12628732;23;20025;-72
2023/10/12 19:45:12;;;;;;;17.98;10.13;;;;;;;;;;12630612;23;20021;-67
2023/10/12 19:50:09;;;;;;;23.67;11.57;;;;;;;;;;12631678;23;20024;-69
2023/10/12 19:55:05;;;;;;;12.63;10.32;;;;;;;;;;12627150;23;20021;-69
2023/10/12 20:05:18;;;;;;;19.20;10.05;;;;;;;;;;12634908;23;20044;-69
2023/10/12 20:10:15;;;;;;;20.23;10.43;;;;;;;;;;12636004;23;20016;-69
2023/10/12 20:15:12;;;;;;;21.77;10.73;;;;;;;;;;12633420;23;20071;-69
2023/10/12 20:20:09;;;;;;;14.75;10.63;;;;;;;;;;12634758;23;20024;-69
2023/10/12 20:25:06;;;;;;;18.42;11.38;;;;;;;;;;12634573;23;20024;-67
2023/10/12 20:30:03;;;;;;;20.90;10.15;;;;;;;;;;12635336;23;20023;-67
2023/10/12 20:35:00;;;;;;;12.02;10.02;;;;;;;;;;12633986;23;20021;-68
2023/10/12 20:39:59;;;;;;;12.90;10.15;;;;;;;;;;12634794;23;20482;-69
2023/10/12 20:44:55;;;;;;;17.65;10.43;;;;;;;;;;12633836;23;20650;-68
2023/10/12 20:49:51;;;;;;;13.18;9.80;;;;;;;;;;12628288;23;20025;-69
2023/10/12 20:54:48;;;;;;;11.10;8.45;;;;;;;;;;12627960;23;20446;-68
2023/10/12 20:59:47;;;;;;;16.67;8.55;;;;;;;;;;12634553;23;20466;-68
2023/10/12 21:04:48;;;;;;;12.20;7.95;;;;;;;;;;12633566;23;20098;-69
2023/10/12 21:10:00;;;;;;;12.48;7.38;;;;;;;;;;12632414;23;20067;-69
2023/10/12 21:14:59;;;;;;;16.35;7.72;;;;;;;;;;12633948;23;20107;-69
2023/10/12 21:20:09;;;;;;;14.77;6.72;;;;;;;;;;12632830;23;20052;-69
2023/10/12 21:25:13;;;;;;;14.65;7.03;;;;;;;;;;12632264;23;20020;-71
2023/10/12 21:30:12;;;;;;;13.30;7.07;;;;;;;;;;12634916;23;20028;-68
2023/10/12 21:35:09;;;;;;;12.30;6.72;;;;;;;;;;12633367;23;20017;-68
2023/10/12 21:45:22;;;;;;;11.67;7.30;;;;;;;;;;12634295;23;20021;-69
2023/10/12 21:50:18;;;;;;;9.85;7.50;;;;;;;;;;12633383;23;20036;-68
2023/10/12 21:55:15;;;;;;;9.25;7.35;;;;;;;;;;12634282;23;20023;-68
2023/10/12 22:00:30;;;;;;;16.65;8.30;;;;;;;;;;12629259;23;20025;-68
2023/10/12 22:05:29;;;;;;;11.20;7.18;;;;;;;;;;12633177;23;20024;-68
2023/10/12 22:10:29;;;;;;;17.80;7.60;;;;;;;;;;12633653;23;20086;-68
2023/10/12 22:15:30;;;;;;;16.13;8.00;;;;;;;;;;12633388;23;20021;-68
2023/10/12 22:20:27;;;;;;;17.58;8.05;;;;;;;;;;12633989;23;20020;-69
2023/10/12 22:25:23;;;;;;;12.15;7.78;;;;;;;;;;12638265;23;20481;-69
2023/10/12 22:30:20;;;;;;;11.45;8.13;;;;;;;;;;12637021;23;20040;-69
2023/10/12 22:35:17;;;;;;;11.52;7.72;;;;;;;;;;12636865;23;20085;-68
2023/10/12 22:40:16;;;;;;;12.25;7.07;;;;;;;;;;12637743;23;20017;-68
2023/10/12 22:45:16;;;;;;;8.57;7.78;;;;;;;;;;12637719;23;20051;-68
2023/10/12 22:50:12;;;;;;;10.15;7.28;;;;;;;;;;12630930;23;20024;-69
2023/10/12 22:55:10;;;;;;;13.32;7.80;;;;;;;;;;12636259;23;20446;-69
2023/10/12 23:00:29;;;;;;;15.50;7.88;;;;;;;;;;12634362;23;20037;-68
2023/10/12 23:05:24;;;;;;;14.45;7.70;;;;;;;;;;12634056;23;20028;-69
2023/10/12 23:10:23;;;;;;;8.80;7.82;;;;;;;;;;12637330;23;20071;-69
2023/10/12 23:15:19;;;;;;;11.70;8.07;;;;;;;;;;12634680;23;20487;-69
2023/10/12 23:20:19;;;;;;;12.45;8.85;;;;;;;;;;12637253;23;20028;-69
2023/10/12 23:25:16;;;;;;;11.90;7.25;;;;;;;;;;12636209;23;20027;-69
2023/10/12 23:30:18;;;;;;;11.65;7.55;;;;;;;;;;12637333;23;20024;-68
2023/10/12 23:35:34;;;;;;;11.15;7.47;;;;;;;;;;12635876;23;20021;-68
2023/10/12 23:40:31;;;;;;;10.73;7.07;;;;;;;;;;12636490;23;20021;-70
2023/10/12 23:45:35;;;;;;;11.80;7.50;;;;;;;;;;12636409;23;20557;-69
2023/10/12 23:50:35;;;;;;;11.43;7.35;;;;;;;;;;12629265;23;20026;-70
2023/10/12 23:55:32;;;;;;;12.90;6.60;;;;;;;;;;12635751;23;20514;-70
